Time;durP1;ratioP1;P1;durP2;ratioP2;P2;SDS_P1;SDS_P2;PMS_P1;PMS_P2;Temp;Humidity;BMP_temperature;BMP_pressure;BME280_temperature;BME280_humidity;BME280_pressure;Samples;Min_cycle;Max_cycle;Signal;HPM_P1;HPM_P2
2022/09/15 00:00:17;;;;;;;2.38;0.60;;;14.70;72.40;;;;;;5071975;28;20348;-79
2022/09/15 00:02:43;;;;;;;3.35;0.60;;;14.70;64.30;;;;;;5072034;28;20651;-80
2022/09/15 00:05:09;;;;;;;4.40;0.68;;;14.70;52.30;;;;;;5072091;28;20032;-80
2022/09/15 00:07:35;;;;;;;3.60;1.13;;;14.60;54.40;;;;;;5071923;28;20016;-80
2022/09/15 00:10:02;;;;;;;4.03;0.70;;;14.50;52.80;;;;;;5072005;28;20594;-79
2022/09/15 00:12:28;;;;;;;6.00;0.88;;;14.40;52.70;;;;;;5056285;28;20107;-80
2022/09/15 00:14:54;;;;;;;2.47;0.47;;;14.40;51.60;;;;;;5051760;28;20029;-80
2022/09/15 00:17:20;;;;;;;2.10;0.40;;;14.30;46.60;;;;;;5051691;28;20109;-80
2022/09/15 00:19:46;;;;;;;4.35;0.57;;;14.20;53.40;;;;;;5051848;28;20021;-80
2022/09/15 00:22:11;;;;;;;3.03;1.17;;;14.30;49.70;;;;;;5051798;28;20480;-79
2022/09/15 00:24:37;;;;;;;1.15;0.55;;;14.10;49.60;;;;;;5051797;28;20052;-80
2022/09/15 00:27:03;;;;;;;2.47;0.50;;;14.00;49.40;;;;;;5051603;28;20096;-79
2022/09/15 00:29:29;;;;;;;5.55;0.60;;;13.90;48.20;;;;;;5033951;28;20510;-79
2022/09/15 00:31:54;;;;;;;1.63;0.57;;;14.00;49.30;;;;;;5051637;28;20032;-80
2022/09/15 00:34:20;;;;;;;1.80;0.60;;;14.00;49.30;;;;;;5051440;28;20073;-80
2022/09/15 00:36:46;;;;;;;1.85;0.40;;;14.10;45.80;;;;;;5053278;28;20560;-79
2022/09/15 00:39:12;;;;;;;1.92;0.52;;;14.40;42.90;;;;;;5055901;28;20059;-79
2022/09/15 00:41:39;;;;;;;3.42;0.68;;;14.30;41.40;;;;;;5055810;28;20033;-79
2022/09/15 00:44:43;;;;;;;1.63;0.50;;;14.20;40.60;;;;;;5055620;28;20025;-80
2022/09/15 00:47:08;;;;;;;5.07;0.63;;;14.30;38.20;;;;;;5055698;28;20040;-79
2022/09/15 00:49:37;;;;;;;2.40;0.40;;;14.40;35.30;;;;;;5055492;28;20017;-79
2022/09/15 00:52:07;;;;;;;1.58;0.30;;;14.40;33.70;;;;;;5055192;28;20025;-79
2022/09/15 00:54:53;;;;;;;4.53;0.60;;;14.40;31.60;;;;;;5055473;28;20420;-79
2022/09/15 00:57:38;;;;;;;2.40;0.50;;;14.40;29.60;;;;;;5055338;28;20033;-79
2022/09/15 01:00:10;;;;;;;3.47;0.30;;;14.40;25.40;;;;;;5055352;28;20120;-79
2022/09/15 01:02:36;;;;;;;4.30;0.50;;;14.40;22.40;;;;;;5055327;28;20082;-79
2022/09/15 01:05:06;;;;;;;1.10;0.30;;;14.50;20.00;;;;;;5055226;28;20507;-79
2022/09/15 01:07:50;;;;;;;0.57;0.30;;;14.50;19.20;;;;;;5055083;28;20029;-79
2022/09/15 01:10:34;;;;;;;6.30;0.93;;;14.50;19.90;;;;;;5055149;28;20029;-79
2022/09/15 01:13:02;;;;;;;2.05;0.30;;;14.70;28.50;;;;;;5055124;28;20031;-79
2022/09/15 01:15:55;;;;;;;5.28;0.85;;;14.80;29.40;;;;;;5055025;28;20488;-78
2022/09/15 01:18:29;;;;;;;3.22;0.65;;;14.70;29.90;;;;;;5055125;28;20092;-80
2022/09/15 01:21:20;;;;;;;0.50;0.28;;;14.70;31.10;;;;;;5055098;28;20033;-79
2022/09/15 01:24:06;;;;;;;1.27;0.50;;;14.80;24.10;;;;;;5055013;28;20021;-79
2022/09/15 01:26:56;;;;;;;2.65;0.70;;;14.80;20.40;;;;;;5054850;28;20021;-79
2022/09/15 01:29:37;;;;;;;3.72;0.43;;;14.80;20.20;;;;;;5053639;28;20068;-79
2022/09/15 01:35:39;;;;;;;1.42;0.40;;;14.70;20.60;;;;;;5054692;28;20131;-79
2022/09/15 01:38:30;;;;;;;4.10;0.70;;;14.70;20.20;;;;;;5054614;28;20112;-79
2022/09/15 01:40:58;;;;;;;1.70;0.40;;;14.60;20.30;;;;;;5054758;28;20455;-79
2022/09/15 01:43:26;;;;;;;4.28;0.65;;;14.60;19.40;;;;;;5054571;28;20032;-80
2022/09/15 01:45:52;;;;;;;3.05;0.50;;;14.60;17.90;;;;;;5054470;28;20025;-80
2022/09/15 01:48:24;;;;;;;4.82;0.60;;;14.60;17.50;;;;;;5036058;28;20028;-79
2022/09/15 01:50:54;;;;;;;3.30;0.40;;;14.50;18.20;;;;;;5054243;28;20082;-79
2022/09/15 01:53:21;;;;;;;3.78;0.60;;;14.60;18.70;;;;;;5054310;28;20460;-80
2022/09/15 01:56:03;;;;;;;6.15;0.47;;;14.60;22.10;;;;;;5054494;28;20024;-79
2022/09/15 01:58:29;;;;;;;5.30;0.68;;;14.50;20.30;;;;;;5054795;28;20046;-79
2022/09/15 02:01:01;;;;;;;4.97;0.60;;;14.50;20.30;;;;;;5054191;28;20017;-80
2022/09/15 02:03:54;;;;;;;5.85;0.82;;;14.50;21.00;;;;;;5054503;28;20033;-80
2022/09/15 02:06:35;;;;;;;1.40;0.50;;;14.40;23.60;;;;;;5054426;28;20021;-79
2022/09/15 02:09:16;;;;;;;3.47;0.43;;;14.40;26.30;;;;;;5066772;28;20032;-79
2022/09/15 02:11:54;;;;;;;6.22;0.70;;;14.40;28.20;;;;;;5053832;28;20025;-79
2022/09/15 02:15:04;;;;;;;6.47;0.70;;;14.40;29.20;;;;;;5053937;28;20068;-80
2022/09/15 02:17:37;;;;;;;3.20;0.55;;;14.30;30.50;;;;;;5054060;28;20087;-79
2022/09/15 02:20:22;;;;;;;3.92;0.65;;;14.30;31.90;;;;;;5054088;28;20100;-79
2022/09/15 02:22:54;;;;;;;3.45;0.60;;;14.20;33.10;;;;;;5053999;28;20028;-79
2022/09/15 02:25:29;;;;;;;3.10;0.63;;;14.30;34.70;;;;;;5053821;28;20452;-79
2022/09/15 02:28:01;;;;;;;5.15;0.80;;;14.20;35.40;;;;;;5053786;28;20521;-79
2022/09/15 02:30:28;;;;;;;2.95;0.32;;;14.20;34.90;;;;;;5053687;28;20029;-79
2022/09/15 02:32:58;;;;;;;2.33;0.52;;;14.20;36.90;;;;;;5053228;28;20101;-79
2022/09/15 02:35:25;;;;;;;7.18;0.80;;;14.20;37.10;;;;;;5053504;28;20055;-79
2022/09/15 02:37:52;;;;;;;3.50;0.50;;;14.10;39.40;;;;;;5053450;28;20112;-79
2022/09/15 02:40:18;;;;;;;5.68;1.17;;;14.10;36.60;;;;;;5053531;28;20468;-79
2022/09/15 02:43:02;;;;;;;5.22;0.82;;;14.20;32.30;;;;;;5053616;28;20031;-79
2022/09/15 02:45:29;;;;;;;6.45;1.17;;;14.20;24.00;;;;;;5053256;28;20020;-79
2022/09/15 02:47:56;;;;;;;4.63;0.88;;;14.30;10.40;;;;;;5053241;28;20048;-79
2022/09/15 02:50:23;;;;;;;3.95;0.88;;;14.30;9.00;;;;;;5053110;28;20104;-79
2022/09/15 02:52:49;;;;;;;1.13;0.55;;;14.40;2.70;;;;;;5053498;28;20371;-79
2022/09/15 02:55:15;;;;;;;3.92;0.73;;;14.30;1.00;;;;;;5053130;28;20082;-79
2022/09/15 02:57:40;;;;;;;1.70;0.40;;;14.50;1.00;;;;;;5053252;28;20017;-79
2022/09/15 03:00:13;;;;;;;1.70;0.60;;;14.50;1.00;;;;;;5052075;28;20029;-79
2022/09/15 03:02:52;;;;;;;2.53;0.47;;;14.50;1.00;;;;;;5053090;28;20024;-79
2022/09/15 03:05:20;;;;;;;1.73;0.40;;;14.60;1.00;;;;;;5052914;28;20021;-79
2022/09/15 03:07:46;;;;;;;2.65;0.45;;;14.50;1.00;;;;;;5052969;28;20021;-79
2022/09/15 03:10:12;;;;;;;6.25;0.60;;;14.50;1.00;;;;;;5052839;28;20036;-79
2022/09/15 03:12:47;;;;;;;7.10;0.60;;;14.50;1.00;;;;;;5052786;28;20031;-79
2022/09/15 03:15:15;;;;;;;3.88;0.70;;;14.50;1.00;;;;;;5052711;28;20491;-79
2022/09/15 03:17:42;;;;;;;4.38;0.70;;;14.50;1.00;;;;;;5052812;28;20025;-79
2022/09/15 03:20:10;;;;;;;3.08;0.63;;;14.50;1.00;;;;;;5052685;28;20411;-79
2022/09/15 03:22:36;;;;;;;1.73;0.40;;;14.50;1.00;;;;;;5052666;28;20021;-79
2022/09/15 03:25:04;;;;;;;3.90;0.50;;;14.40;1.00;;;;;;5052359;28;20021;-79
2022/09/15 03:27:30;;;;;;;5.10;0.90;;;14.30;1.00;;;;;;5052751;28;20028;-79
2022/09/15 03:29:56;;;;;;;6.25;0.40;;;14.30;1.00;;;;;;5052544;28;20021;-79
2022/09/15 03:32:21;;;;;;;4.57;0.90;;;14.30;1.00;;;;;;5052491;28;20032;-79
2022/09/15 03:34:47;;;;;;;4.28;0.70;;;14.30;1.00;;;;;;5052366;28;20171;-79
2022/09/15 03:37:12;;;;;;;3.35;0.70;;;14.40;1.00;;;;;;5052459;28;20017;-79
2022/09/15 03:39:38;;;;;;;1.95;0.45;;;14.40;1.00;;;;;;5052450;28;20102;-79
2022/09/15 03:42:04;;;;;;;3.85;0.70;;;14.50;1.00;;;;;;5052464;28;20163;-79
2022/09/15 03:44:29;;;;;;;3.00;0.55;;;14.50;1.00;;;;;;5052110;28;20384;-79
2022/09/15 03:46:56;;;;;;;7.15;0.68;;;14.50;1.00;;;;;;5034380;28;20025;-79
2022/09/15 03:49:23;;;;;;;5.75;1.05;;;14.70;1.00;;;;;;5052336;28;20019;-79
2022/09/15 03:51:49;;;;;;;6.07;0.70;;;14.60;1.00;;;;;;5052271;28;20067;-79
2022/09/15 03:54:15;;;;;;;4.00;0.50;;;14.70;1.00;;;;;;5052204;28;20036;-79
2022/09/15 03:56:41;;;;;;;3.35;0.65;;;14.70;1.00;;;;;;5052370;28;20082;-79
2022/09/15 03:59:07;;;;;;;4.88;0.60;;;14.60;1.00;;;;;;5052070;28;20025;-79
2022/09/15 04:01:33;;;;;;;5.13;0.73;;;14.60;1.00;;;;;;5052302;28;20020;-79
2022/09/15 04:03:58;;;;;;;5.85;0.70;;;14.50;1.00;;;;;;5052179;28;20032;-79
2022/09/15 04:06:25;;;;;;;3.25;0.80;;;14.50;1.00;;;;;;5052136;28;20079;-79
2022/09/15 04:08:51;;;;;;;3.53;0.90;;;14.50;1.00;;;;;;5051956;28;20022;-79
2022/09/15 04:11:18;;;;;;;4.30;0.68;;;14.50;1.00;;;;;;5051735;28;20436;-79
2022/09/15 04:13:44;;;;;;;3.15;0.65;;;14.50;1.00;;;;;;5051927;28;20349;-79
2022/09/15 04:16:12;;;;;;;2.53;0.50;;;14.60;1.00;;;;;;5051995;28;20078;-80
2022/09/15 04:18:38;;;;;;;4.15;0.50;;;14.50;1.00;;;;;;5051921;28;20053;-80
2022/09/15 04:21:07;;;;;;;4.10;0.60;;;14.40;1.00;;;;;;5052066;28;20472;-79
2022/09/15 04:23:33;;;;;;;5.40;0.60;;;14.40;1.00;;;;;;5051947;28;20048;-79
2022/09/15 04:26:03;;;;;;;3.92;0.50;;;14.50;1.00;;;;;;5065414;28;20029;-79
2022/09/15 04:28:32;;;;;;;2.80;0.53;;;14.50;1.00;;;;;;5071496;28;20021;-79
2022/09/15 04:31:09;;;;;;;4.23;0.70;;;14.40;1.00;;;;;;5071764;28;20432;-79
2022/09/15 04:33:36;;;;;;;5.25;0.70;;;14.40;1.00;;;;;;5050788;28;20101;-79
2022/09/15 04:36:08;;;;;;;4.40;0.60;;;14.40;1.00;;;;;;5060171;28;20039;-79
2022/09/15 04:38:34;;;;;;;3.00;0.47;;;14.40;1.00;;;;;;5071370;28;20081;-79
2022/09/15 04:41:01;;;;;;;4.78;0.60;;;14.30;1.00;;;;;;5071314;28;20422;-79
2022/09/15 04:43:27;;;;;;;3.33;0.70;;;14.40;1.00;;;;;;5071454;28;20386;-79
2022/09/15 04:45:53;;;;;;;1.92;0.40;;;14.40;1.00;;;;;;5071451;28;20029;-79
2022/09/15 04:48:20;;;;;;;4.72;1.38;;;14.40;1.00;;;;;;5071892;28;20043;-79
2022/09/15 04:50:45;;;;;;;7.05;0.90;;;14.40;1.00;;;;;;5071161;28;20021;-79
2022/09/15 04:53:11;;;;;;;4.43;0.80;;;14.50;1.00;;;;;;5071343;28;20550;-79
2022/09/15 04:55:37;;;;;;;3.30;0.60;;;14.40;1.00;;;;;;5071437;28;20021;-79
2022/09/15 04:58:03;;;;;;;5.60;0.70;;;14.40;1.00;;;;;;5071533;28;20016;-79
2022/09/15 05:00:31;;;;;;;4.80;0.68;;;14.50;1.00;;;;;;5071101;28;20081;-79
2022/09/15 05:02:58;;;;;;;6.55;0.70;;;14.50;1.00;;;;;;5071375;28;20024;-79
2022/09/15 05:05:24;;;;;;;4.90;0.57;;;14.50;1.00;;;;;;5071184;28;20490;-79
2022/09/15 05:07:50;;;;;;;4.70;0.80;;;14.50;1.00;;;;;;5071096;28;20013;-79
2022/09/15 05:10:16;;;;;;;4.85;0.93;;;14.50;1.00;;;;;;5070957;28;20082;-79
2022/09/15 05:12:42;;;;;;;5.57;0.50;;;14.50;1.00;;;;;;5071022;28;20028;-79
2022/09/15 05:15:07;;;;;;;9.32;0.88;;;14.50;1.00;;;;;;5071026;28;20029;-79
2022/09/15 05:17:33;;;;;;;7.40;0.55;;;14.50;1.00;;;;;;5070883;28;20052;-79
2022/09/15 05:19:59;;;;;;;5.75;0.80;;;14.50;1.00;;;;;;5053046;28;20363;-78
2022/09/15 05:22:26;;;;;;;4.57;0.77;;;14.60;1.00;;;;;;5054165;28;20660;-79
2022/09/15 05:24:52;;;;;;;4.57;0.90;;;14.60;1.00;;;;;;5055071;28;20166;-79
2022/09/15 05:27:17;;;;;;;7.78;0.88;;;14.60;1.00;;;;;;5054595;28;20559;-79
2022/09/15 05:29:43;;;;;;;7.25;1.80;;;14.60;1.00;;;;;;5054736;28;20044;-79
2022/09/15 05:32:08;;;;;;;6.85;0.70;;;14.60;1.00;;;;;;5054582;28;20040;-79
2022/09/15 05:34:34;;;;;;;3.75;0.70;;;14.70;1.00;;;;;;5054400;28;20114;-80
2022/09/15 05:37:00;;;;;;;5.50;1.38;;;14.70;1.00;;;;;;5054578;28;20044;-79
2022/09/15 05:39:26;;;;;;;4.63;0.65;;;14.80;1.00;;;;;;5054903;28;20052;-79
2022/09/15 05:41:51;;;;;;;3.97;0.63;;;14.80;1.00;;;;;;5054397;28;20056;-79
2022/09/15 05:44:17;;;;;;;3.38;0.60;;;14.90;1.00;;;;;;5054351;28;20021;-79
2022/09/15 05:46:43;;;;;;;3.78;0.70;;;14.90;1.00;;;;;;5054251;28;20071;-79
2022/09/15 05:49:10;;;;;;;4.68;0.60;;;14.90;1.00;;;;;;5054327;28;20529;-79
2022/09/15 05:51:36;;;;;;;6.72;0.60;;;14.90;1.00;;;;;;5054591;28;20025;-79
2022/09/15 05:54:01;;;;;;;1.52;0.52;;;14.90;1.00;;;;;;5054061;28;20048;-79
2022/09/15 05:56:27;;;;;;;3.47;0.55;;;14.90;1.00;;;;;;5053454;28;20699;-79
2022/09/15 05:58:53;;;;;;;4.05;0.52;;;14.90;1.00;;;;;;5054274;28;20028;-79
2022/09/15 06:01:21;;;;;;;3.85;1.00;;;14.90;1.00;;;;;;5053964;28;20021;-79
2022/09/15 06:03:48;;;;;;;3.83;0.55;;;14.90;1.00;;;;;;5053840;28;20035;-80
2022/09/15 06:06:14;;;;;;;4.93;0.47;;;14.90;1.00;;;;;;5053722;28;20523;-79
2022/09/15 06:08:45;;;;;;;4.72;0.70;;;15.00;1.00;;;;;;5053883;28;20013;-79
2022/09/15 06:11:16;;;;;;;2.60;0.40;;;15.10;1.00;;;;;;5053719;28;20053;-79
2022/09/15 06:13:42;;;;;;;4.75;0.60;;;15.10;1.00;;;;;;5053435;28;20032;-79
2022/09/15 06:16:10;;;;;;;3.15;0.47;;;15.10;1.00;;;;;;5053347;28;20472;-79
2022/09/15 06:18:37;;;;;;;4.88;0.57;;;15.20;1.00;;;;;;5053486;28;20115;-79
2022/09/15 06:21:06;;;;;;;4.55;0.32;;;15.30;1.00;;;;;;5053364;28;20017;-79
2022/09/15 06:23:32;;;;;;;7.43;0.70;;;15.40;1.00;;;;;;5053478;28;20029;-79
2022/09/15 06:26:18;;;;;;;3.55;0.40;;;15.40;1.00;;;;;;5053443;28;20020;-79
2022/09/15 06:28:49;;;;;;;2.60;0.43;;;15.50;1.00;;;;;;5053317;28;20055;-79
2022/09/15 06:31:15;;;;;;;3.65;0.80;;;15.60;1.00;;;;;;5056433;28;20055;-79
2022/09/15 06:33:43;;;;;;;1.88;0.88;;;15.80;1.00;;;;;;5072857;28;20152;-79
2022/09/15 06:36:10;;;;;;;0.65;0.40;;;16.00;1.00;;;;;;5073693;28;20100;-79
2022/09/15 06:38:37;;;;;;;3.75;0.60;;;16.10;1.00;;;;;;5073025;28;20070;-79
2022/09/15 06:41:03;;;;;;;14.88;2.35;;;16.30;1.00;;;;;;5060160;28;20100;-79
2022/09/15 06:43:30;;;;;;;4.13;0.60;;;16.40;1.00;;;;;;5062036;28;20038;-78
2022/09/15 06:46:18;;;;;;;2.92;0.70;;;16.40;1.00;;;;;;5058267;28;20104;-79
2022/09/15 06:48:44;;;;;;;3.22;0.60;;;16.50;1.00;;;;;;5052749;28;20043;-79
2022/09/15 06:51:11;;;;;;;3.35;0.47;;;16.60;1.00;;;;;;5052970;28;20367;-78
2022/09/15 06:53:37;;;;;;;4.00;0.63;;;16.70;1.00;;;;;;5052847;28;20032;-78
2022/09/15 06:56:05;;;;;;;3.17;0.40;;;16.60;1.00;;;;;;5053029;28;20079;-78
2022/09/15 06:58:34;;;;;;;3.25;0.60;;;16.30;1.00;;;;;;5052924;28;20110;-78
2022/09/15 07:01:01;;;;;;;1.25;0.50;;;16.20;1.00;;;;;;5052705;28;20013;-78
2022/09/15 07:03:27;;;;;;;1.23;0.28;;;16.10;1.00;;;;;;5053238;28;20056;-78
2022/09/15 07:05:52;;;;;;;2.08;0.10;;;15.90;1.00;;;;;;5052789;28;20049;-78
2022/09/15 07:08:18;;;;;;;0.80;0.28;;;15.90;1.00;;;;;;5053191;28;20025;-78
2022/09/15 07:10:44;;;;;;;0.20;0.10;;;15.50;1.00;;;;;;5053519;28;20096;-79
2022/09/15 07:13:10;;;;;;;1.83;0.40;;;15.40;1.00;;;;;;5053477;28;20060;-78
2022/09/15 07:15:35;;;;;;;1.90;0.40;;;15.50;1.00;;;;;;5052799;28;20064;-78
2022/09/15 07:18:01;;;;;;;1.85;0.60;;;15.50;1.00;;;;;;5052512;28;20052;-78
2022/09/15 07:20:27;;;;;;;2.70;0.32;;;15.50;1.00;;;;;;5052344;28;20028;-78
2022/09/15 07:22:52;;;;;;;1.33;0.47;;;15.60;1.00;;;;;;5052766;28;20025;-79
2022/09/15 07:25:18;;;;;;;1.27;0.30;;;15.70;1.00;;;;;;5052275;28;20056;-78
2022/09/15 07:27:43;;;;;;;3.45;0.50;;;15.90;1.00;;;;;;5052585;28;20029;-78
2022/09/15 07:30:10;;;;;;;3.42;0.60;;;16.20;1.00;;;;;;5052063;28;20021;-78
2022/09/15 07:32:36;;;;;;;2.60;0.50;;;16.40;1.00;;;;;;5052353;28;20372;-78
2022/09/15 07:35:02;;;;;;;4.57;0.52;;;16.70;1.00;;;;;;5051734;28;20049;-78
2022/09/15 07:37:27;;;;;;;2.47;0.50;;;16.80;1.00;;;;;;5052083;28;20028;-79
2022/09/15 07:39:53;;;;;;;3.63;0.63;;;16.80;1.00;;;;;;5052092;28;20025;-79
2022/09/15 07:42:18;;;;;;;4.28;0.82;;;16.90;1.00;;;;;;5052447;28;20106;-78
2022/09/15 07:44:44;;;;;;;5.20;0.60;;;16.90;1.00;;;;;;5051748;28;20079;-79
2022/09/15 07:47:10;;;;;;;6.10;0.93;;;17.20;1.00;;;;;;5051613;28;20029;-78
2022/09/15 07:49:35;;;;;;;7.30;0.70;;;17.70;1.00;;;;;;5052165;28;20043;-78
2022/09/15 07:52:01;;;;;;;4.95;0.90;;;19.40;1.00;;;;;;5051725;28;20309;-79
2022/09/15 07:54:27;;;;;;;0.85;0.38;;;25.30;1.00;;;;;;5034279;28;20056;-78
2022/09/15 07:56:53;;;;;;;4.25;0.75;;;25.70;1.00;;;;;;5051677;28;20052;-79
2022/09/15 07:59:18;;;;;;;2.22;0.50;;;23.00;1.00;;;;;;5051922;28;20023;-79
2022/09/15 08:01:44;;;;;;;5.47;0.75;;;20.90;1.00;;;;;;5051544;28;20025;-78
2022/09/15 08:04:09;;;;;;;4.40;0.40;;;19.40;1.00;;;;;;5051928;28;20529;-78
2022/09/15 08:06:35;;;;;;;2.78;0.43;;;19.10;1.00;;;;;;5053820;28;20378;-79
2022/09/15 08:09:01;;;;;;;3.92;0.65;;;20.50;1.00;;;;;;5072231;28;20021;-79
2022/09/15 08:11:27;;;;;;;5.82;0.60;;;24.40;1.00;;;;;;5071526;28;20017;-79
2022/09/15 08:13:53;;;;;;;2.13;0.50;;;23.10;1.00;;;;;;5071689;28;20121;-79
2022/09/15 08:16:23;;;;;;;3.03;1.13;;;25.60;1.00;;;;;;5071503;28;20051;-79
2022/09/15 08:18:50;;;;;;;0.43;0.10;;;27.60;1.00;;;;;;5059798;28;20021;-79
2022/09/15 08:21:21;;;;;;;1.83;0.40;;;29.00;1.00;;;;;;5051546;28;20060;-79
2022/09/15 08:23:55;;;;;;;3.85;0.38;;;25.70;1.00;;;;;;5052009;28;20020;-79
2022/09/15 08:26:21;;;;;;;2.55;0.45;;;23.20;1.00;;;;;;5051325;28;20028;-79
2022/09/15 08:28:48;;;;;;;1.92;0.40;;;22.20;1.00;;;;;;5051660;28;20021;-79
2022/09/15 08:31:14;;;;;;;3.33;0.50;;;21.80;1.00;;;;;;5051507;28;20036;-79
2022/09/15 08:33:40;;;;;;;3.22;0.50;;;21.60;1.00;;;;;;5051221;28;20141;-78
2022/09/15 08:36:11;;;;;;;3.45;0.50;;;21.40;1.00;;;;;;5033311;28;20408;-78
2022/09/15 08:38:42;;;;;;;4.43;0.70;;;20.90;1.00;;;;;;5051522;28;20153;-79
2022/09/15 08:41:27;;;;;;;3.78;0.50;;;20.60;1.00;;;;;;5051568;28;20024;-79
2022/09/15 08:44:20;;;;;;;2.92;0.63;;;20.80;1.00;;;;;;5051588;28;20032;-79
2022/09/15 08:46:49;;;;;;;3.85;0.60;;;21.10;1.00;;;;;;5051266;28;20502;-79
2022/09/15 08:49:23;;;;;;;1.95;0.52;;;21.00;1.00;;;;;;5051344;28;20036;-79
2022/09/15 08:51:50;;;;;;;4.32;0.93;;;21.10;1.00;;;;;;5051293;28;20041;-79
2022/09/15 08:54:23;;;;;;;2.65;0.65;;;21.20;1.00;;;;;;5065582;28;20021;-78
2022/09/15 08:56:50;;;;;;;3.00;0.40;;;22.40;1.00;;;;;;5071358;28;20024;-78
2022/09/15 08:59:17;;;;;;;3.97;0.40;;;26.80;1.00;;;;;;5075199;28;20021;-79
2022/09/15 09:01:54;;;;;;;2.70;0.50;;;24.80;1.00;;;;;;5075204;28;20415;-78
2022/09/15 09:04:46;;;;;;;4.00;0.80;;;23.30;1.00;;;;;;5075019;28;20579;-79
2022/09/15 09:07:42;;;;;;;2.45;0.50;;;22.50;1.00;;;;;;5045951;28;20041;-79
2022/09/15 09:10:23;;;;;;;2.60;0.60;;;21.20;1.00;;;;;;5055103;28;20025;-79
2022/09/15 09:13:02;;;;;;;3.13;0.50;;;21.10;1.00;;;;;;5055141;28;20025;-79
2022/09/15 09:15:28;;;;;;;2.80;0.60;;;21.10;1.00;;;;;;5055035;28;20077;-79
2022/09/15 09:18:28;;;;;;;4.47;0.77;;;21.10;1.00;;;;;;5054745;28;20595;-79
2022/09/15 09:21:03;;;;;;;;;;;20.90;1.00;;;;;;5055325;28;20021;-79
2022/09/15 09:23:31;;;;;;;1.90;0.38;;;21.30;1.00;;;;;;5054841;28;20374;-79
2022/09/15 09:25:59;;;;;;;5.20;0.60;;;21.40;1.00;;;;;;5054937;28;20084;-79
2022/09/15 09:28:38;;;;;;;2.45;0.80;;;21.90;1.00;;;;;;5054800;28;20017;-79
2022/09/15 09:31:11;;;;;;;3.20;0.60;;;22.40;1.00;;;;;;5054858;28;20175;-79
2022/09/15 09:33:43;;;;;;;4.25;0.73;;;22.20;1.00;;;;;;5054604;28;20060;-79
2022/09/15 09:36:10;;;;;;;3.42;0.50;;;22.90;1.00;;;;;;5054485;28;20024;-79
2022/09/15 09:38:39;;;;;;;5.18;0.57;;;23.70;1.00;;;;;;5054530;28;20036;-79
2022/09/15 09:41:17;;;;;;;5.20;0.60;;;22.60;1.00;;;;;;5054477;28;20098;-79
2022/09/15 09:43:45;;;;;;;3.55;0.70;;;22.20;1.00;;;;;;5054659;28;20099;-79
2022/09/15 09:46:16;;;;;;;1.10;0.43;;;22.30;1.00;;;;;;5054374;28;20025;-79
2022/09/15 09:48:55;;;;;;;3.95;0.63;;;22.20;1.00;;;;;;5054308;28;20048;-79
2022/09/15 09:51:38;;;;;;;3.13;0.75;;;23.00;1.00;;;;;;5036265;28;20056;-79
2022/09/15 09:54:11;;;;;;;1.73;0.50;;;26.00;1.00;;;;;;5053977;28;20061;-79
2022/09/15 09:56:37;;;;;;;4.50;0.70;;;26.70;1.00;;;;;;5036213;28;20028;-79
2022/09/15 09:59:03;;;;;;;2.42;0.50;;;29.80;1.00;;;;;;5053901;28;20463;-79
2022/09/15 10:01:29;;;;;;;2.78;0.30;;;27.90;1.00;;;;;;5057032;28;20025;-79
2022/09/15 10:04:24;;;;;;;2.30;0.65;;;25.10;1.00;;;;;;5053965;28;20067;-79
2022/09/15 10:06:50;;;;;;;2.42;0.40;;;28.60;1.00;;;;;;5032828;28;20480;-79
2022/09/15 10:09:17;;;;;;;1.58;0.47;;;29.30;1.00;;;;;;5053342;28;20025;-79
2022/09/15 10:11:48;;;;;;;1.80;0.30;;;31.00;1.00;;;;;;5053981;28;20021;-79
2022/09/15 10:14:27;;;;;;;0.93;0.25;;;30.10;1.00;;;;;;5064605;28;20108;-79
2022/09/15 10:17:12;;;;;;;1.30;0.40;;;30.30;1.00;;;;;;5054519;28;20037;-80
2022/09/15 10:19:49;;;;;;;2.88;0.50;;;30.40;1.00;;;;;;5053932;28;20021;-79
2022/09/15 10:22:28;;;;;;;1.85;0.55;;;30.50;1.00;;;;;;5053744;28;20086;-79
2022/09/15 10:24:55;;;;;;;0.50;0.20;;;26.30;1.00;;;;;;5053226;28;20029;-79
2022/09/15 10:27:34;;;;;;;2.90;0.32;;;24.70;1.00;;;;;;5053676;28;20022;-79
2022/09/15 10:30:11;;;;;;;2.53;0.70;;;23.30;1.00;;;;;;5053170;28;20025;-79
2022/09/15 10:32:37;;;;;;;2.60;0.50;;;23.00;1.00;;;;;;5053513;28;20028;-79
2022/09/15 10:35:15;;;;;;;0.95;0.28;;;23.00;1.00;;;;;;5052508;28;20048;-79
2022/09/15 10:38:04;;;;;;;1.98;0.45;;;22.50;1.00;;;;;;5058896;28;20021;-79
2022/09/15 10:41:02;;;;;;;2.10;0.43;;;22.20;1.00;;;;;;5073257;28;20387;-79
2022/09/15 10:43:51;;;;;;;4.47;0.50;;;21.60;1.00;;;;;;5053351;28;20039;-80
2022/09/15 10:46:26;;;;;;;3.15;0.65;;;21.10;1.00;;;;;;5053267;28;20071;-79
2022/09/15 10:49:19;;;;;;;1.80;0.50;;;21.40;1.00;;;;;;5053272;28;20025;-79
2022/09/15 10:52:12;;;;;;;4.93;0.85;;;21.60;1.00;;;;;;5053025;28;20349;-80
2022/09/15 10:54:48;;;;;;;2.75;0.50;;;21.70;1.00;;;;;;5063534;28;20040;-79
2022/09/15 10:57:22;;;;;;;0.68;0.30;;;21.00;1.00;;;;;;5049041;28;20032;-79
2022/09/15 11:00:05;;;;;;;1.27;0.50;;;21.20;1.00;;;;;;5052659;28;20115;-79
2022/09/15 11:02:46;;;;;;;2.13;0.32;;;20.80;1.00;;;;;;5052933;28;20025;-79
2022/09/15 11:05:54;;;;;;;1.48;0.45;;;20.70;1.00;;;;;;5052544;28;20025;-79
2022/09/15 11:08:47;;;;;;;3.13;0.50;;;20.90;1.00;;;;;;4951923;29;20063;-79
2022/09/15 11:11:19;;;;;;;2.78;0.50;;;21.00;1.00;;;;;;5052446;28;20086;-79
2022/09/15 11:14:22;;;;;;;3.35;1.10;;;21.30;1.00;;;;;;5052409;28;20079;-79
2022/09/15 11:17:01;;;;;;;2.78;0.50;;;21.00;1.00;;;;;;5052268;28;20086;-80
2022/09/15 11:19:51;;;;;;;2.15;0.63;;;21.20;1.00;;;;;;5053301;28;20024;-80
2022/09/15 11:22:23;;;;;;;2.78;0.40;;;21.30;1.00;;;;;;5052420;28;20049;-79
2022/09/15 11:25:11;;;;;;;1.50;0.40;;;21.10;1.00;;;;;;5052415;28;20461;-79
2022/09/15 11:27:56;;;;;;;2.10;0.50;;;20.70;1.00;;;;;;5066199;28;20020;-79
2022/09/15 11:30:24;;;;;;;1.55;0.30;;;21.90;1.00;;;;;;5072248;28;20025;-79
2022/09/15 11:33:00;;;;;;;1.80;0.20;;;21.60;1.00;;;;;;5071613;28;20041;-79
2022/09/15 11:35:41;;;;;;;3.90;0.40;;;21.00;1.00;;;;;;5072091;28;20348;-79
2022/09/15 11:38:24;;;;;;;2.08;0.52;;;20.60;1.00;;;;;;5051920;28;20462;-80
2022/09/15 11:41:00;;;;;;;2.08;0.40;;;21.10;1.00;;;;;;5065262;28;20093;-79
2022/09/15 11:43:44;;;;;;;2.35;0.70;;;21.60;1.00;;;;;;5071975;28;20017;-80
2022/09/15 11:46:17;;;;;;;1.85;0.50;;;21.80;1.00;;;;;;5072461;28;20363;-79
2022/09/15 11:48:51;;;;;;;4.85;0.50;;;21.60;1.00;;;;;;5071901;28;20047;-79
2022/09/15 11:51:20;;;;;;;4.65;0.60;;;21.20;1.00;;;;;;5071967;28;20051;-79
2022/09/15 11:53:56;;;;;;;6.32;0.50;;;21.30;1.00;;;;;;5071542;28;20039;-79
2022/09/15 11:56:33;;;;;;;2.40;0.75;;;21.50;1.00;;;;;;5072100;28;20043;-78
2022/09/15 11:59:05;;;;;;;2.72;0.47;;;21.70;1.00;;;;;;5071825;28;20129;-78
2022/09/15 12:01:42;;;;;;;3.38;0.60;;;21.00;1.00;;;;;;5067099;28;20021;-78
2022/09/15 12:04:16;;;;;;;2.83;0.50;;;20.70;1.00;;;;;;5051843;28;20549;-78
2022/09/15 12:06:47;;;;;;;5.15;0.55;;;20.90;1.00;;;;;;5051536;28;20025;-78
2022/09/15 12:09:16;;;;;;;1.48;0.25;;;20.50;1.00;;;;;;5052942;28;20114;-78
2022/09/15 12:11:44;;;;;;;0.93;0.25;;;20.10;1.00;;;;;;5071505;28;20028;-79
2022/09/15 12:14:17;;;;;;;2.63;0.50;;;19.90;1.00;;;;;;5071263;28;20405;-78
2022/09/15 12:16:44;;;;;;;3.03;0.60;;;20.10;1.00;;;;;;5071818;28;20039;-78
2022/09/15 12:19:32;;;;;;;5.47;0.47;;;20.10;1.00;;;;;;5071440;28;20032;-78
2022/09/15 12:22:29;;;;;;;3.25;0.75;;;19.60;1.00;;;;;;5051989;28;20028;-78
2022/09/15 12:25:16;;;;;;;1.27;0.43;;;19.70;1.00;;;;;;5051268;28;20448;-78
2022/09/15 12:27:42;;;;;;;1.38;0.13;;;19.60;1.00;;;;;;5051731;28;20717;-76
2022/09/15 12:30:38;;;;;;;2.08;0.40;;;19.30;1.00;;;;;;5051069;28;20013;-77
2022/09/15 12:33:42;;;;;;;4.43;0.50;;;18.50;1.00;;;;;;5051340;28;20053;-77
2022/09/15 12:36:42;;;;;;;4.07;0.40;;;18.30;1.00;;;;;;5051274;28;20025;-77
2022/09/15 12:39:44;;;;;;;4.13;0.80;;;18.80;1.00;;;;;;5051024;28;20021;-77
2022/09/15 12:42:19;;;;;;;3.75;0.70;;;19.60;1.00;;;;;;5051244;28;20460;-77
2022/09/15 12:44:47;;;;;;;4.93;1.10;;;19.90;1.00;;;;;;5032908;28;20471;-77
2022/09/15 12:47:27;;;;;;;4.50;0.70;;;19.50;1.00;;;;;;5051063;28;20025;-77
2022/09/15 12:49:55;;;;;;;2.95;0.70;;;19.40;1.00;;;;;;5051357;28;20036;-77
2022/09/15 12:52:24;;;;;;;3.63;0.60;;;19.10;1.00;;;;;;5050913;28;20040;-76
2022/09/15 12:54:56;;;;;;;1.98;0.30;;;18.40;1.00;;;;;;5051392;28;20017;-77
2022/09/15 12:57:32;;;;;;;3.63;0.45;;;18.20;1.00;;;;;;5051040;28;20017;-79
2022/09/15 13:00:27;;;;;;;1.77;0.55;;;18.30;1.00;;;;;;5051166;28;20017;-77
2022/09/15 13:02:54;;;;;;;3.00;0.50;;;18.40;1.00;;;;;;5050775;28;20741;-77
2022/09/15 13:05:41;;;;;;;3.58;0.40;;;18.30;1.00;;;;;;5050878;28;20025;-77
2022/09/15 13:08:30;;;;;;;4.45;0.70;;;18.20;1.00;;;;;;5063940;28;20100;-77
2022/09/15 13:11:07;;;;;;;3.58;0.60;;;18.50;1.00;;;;;;5057232;28;20514;-77
2022/09/15 13:14:03;;;;;;;5.32;0.70;;;18.50;1.00;;;;;;5051011;28;20064;-77
2022/09/15 13:16:44;;;;;;;7.78;1.30;;;18.30;1.00;;;;;;5050715;28;20404;-77
2022/09/15 13:19:13;;;;;;;6.78;0.75;;;18.70;1.00;;;;;;5050777;28;20032;-77
2022/09/15 13:21:43;;;;;;;6.63;0.90;;;18.70;1.00;;;;;;5050936;28;20029;-77
2022/09/15 13:24:18;;;;;;;3.60;1.20;;;18.90;1.00;;;;;;5050577;28;20041;-77